createdAt,value
2023-01-10T00:00:40.724Z,6.80
2023-01-10T00:01:40.644Z,6.79
2023-01-10T00:02:40.699Z,6.77
2023-01-10T00:03:40.609Z,6.76
2023-01-10T00:04:40.646Z,6.76
2023-01-10T00:05:40.597Z,6.77
2023-01-10T00:06:40.583Z,6.72
2023-01-10T00:07:40.581Z,6.73
2023-01-10T00:08:40.560Z,6.72
2023-01-10T00:09:40.536Z,6.68
2023-01-10T00:10:40.511Z,6.68
2023-01-10T00:11:40.521Z,6.66
2023-01-10T00:12:40.526Z,6.65
2023-01-10T00:13:40.507Z,6.65
2023-01-10T00:14:40.512Z,6.63
2023-01-10T00:15:40.500Z,6.63
2023-01-10T00:16:40.451Z,6.63
2023-01-10T00:17:40.425Z,6.62
2023-01-10T00:18:40.421Z,6.62
2023-01-10T00:19:40.404Z,6.61
2023-01-10T00:20:40.414Z,6.61
2023-01-10T00:21:40.390Z,6.61
2023-01-10T00:22:40.410Z,6.58
2023-01-10T00:23:40.375Z,6.61
2023-01-10T00:24:40.346Z,6.59
2023-01-10T00:25:40.368Z,6.61
2023-01-10T00:26:40.325Z,6.61
2023-01-10T00:27:40.340Z,6.61
2023-01-10T00:28:40.310Z,6.61
2023-01-10T00:29:40.293Z,6.63
2023-01-10T00:30:40.247Z,6.65
2023-01-10T00:31:40.274Z,6.65
2023-01-10T00:32:40.232Z,6.65
2023-01-10T00:33:40.217Z,6.65
2023-01-10T00:34:40.212Z,6.63
2023-01-10T00:35:40.254Z,6.65
2023-01-10T00:36:40.184Z,6.62
2023-01-10T00:37:40.212Z,6.61
2023-01-10T00:38:40.173Z,6.56
2023-01-10T00:39:40.182Z,6.54
2023-01-10T00:40:40.129Z,6.54
2023-01-10T00:41:40.155Z,6.54
2023-01-10T00:42:40.110Z,6.51
2023-01-10T00:43:40.165Z,6.51
2023-01-10T00:44:40.136Z,6.53
2023-01-10T00:45:40.076Z,6.54
2023-01-10T00:46:40.046Z,6.53
2023-01-10T00:47:40.054Z,6.56
2023-01-10T00:48:40.055Z,6.58
2023-01-10T00:49:40.010Z,6.58
2023-01-10T00:50:40.032Z,6.58
2023-01-10T00:51:39.997Z,6.58
2023-01-10T00:52:39.987Z,6.59
2023-01-10T00:53:39.987Z,6.61
2023-01-10T00:54:39.959Z,6.62
2023-01-10T00:55:40.022Z,6.63
2023-01-10T00:56:39.940Z,6.65
2023-01-10T00:57:39.944Z,6.66
2023-01-10T00:58:39.890Z,6.66
2023-01-10T00:59:39.891Z,6.66
2023-01-10T01:00:39.880Z,6.65
2023-01-10T01:01:39.924Z,6.68
2023-01-10T01:02:39.878Z,6.66
2023-01-10T01:03:39.857Z,6.68
2023-01-10T01:04:39.916Z,6.68
2023-01-10T01:05:39.870Z,6.68
2023-01-10T01:06:39.808Z,6.69
2023-01-10T01:07:39.795Z,6.69
2023-01-10T01:08:39.783Z,6.72
2023-01-10T01:09:39.779Z,6.73
2023-01-10T01:10:39.754Z,6.73
2023-01-10T01:11:39.759Z,6.77
2023-01-10T01:12:39.721Z,6.81
2023-01-10T01:13:39.732Z,6.84
2023-01-10T01:14:39.701Z,6.83
2023-01-10T01:15:39.726Z,6.84
2023-01-10T01:16:39.685Z,6.84
2023-01-10T01:17:39.656Z,6.84
2023-01-10T01:18:39.681Z,6.87
2023-01-10T01:19:39.624Z,6.87
2023-01-10T01:20:39.633Z,6.87
2023-01-10T01:21:39.624Z,6.87
2023-01-10T01:22:39.615Z,6.89
2023-01-10T01:23:39.582Z,6.90
2023-01-10T01:24:39.566Z,6.90
2023-01-10T01:25:39.565Z,6.94
2023-01-10T01:26:39.581Z,6.95
2023-01-10T01:27:39.570Z,6.94
2023-01-10T01:28:39.545Z,6.97
2023-01-10T01:29:43.487Z,6.97
2023-01-10T01:30:39.493Z,6.99
2023-01-10T01:31:39.508Z,6.97
2023-01-10T01:32:39.508Z,6.99
2023-01-10T01:33:39.483Z,6.99
2023-01-10T01:34:39.447Z,7.01
2023-01-10T01:35:39.424Z,6.98
2023-01-10T01:36:39.438Z,6.97
2023-01-10T01:37:39.411Z,6.98
2023-01-10T01:38:39.411Z,6.95
2023-01-10T01:39:39.363Z,6.95
2023-01-10T01:40:39.401Z,6.95
2023-01-10T01:41:39.382Z,6.91
2023-01-10T01:42:39.339Z,6.91
2023-01-10T01:43:39.312Z,6.95
2023-01-10T01:44:39.400Z,6.95
2023-01-10T01:45:39.311Z,6.97
2023-01-10T01:46:39.490Z,6.98
2023-01-10T01:47:39.264Z,6.98
2023-01-10T01:48:39.311Z,7.01
2023-01-10T01:49:39.270Z,7.04
2023-01-10T01:50:39.276Z,7.04
2023-01-10T01:51:39.242Z,7.07
2023-01-10T01:52:39.204Z,7.05
2023-01-10T01:53:39.304Z,7.05
2023-01-10T01:54:39.198Z,7.05
2023-01-10T01:55:39.304Z,7.04
2023-01-10T01:56:39.202Z,7.02
2023-01-10T01:57:39.135Z,7.01
2023-01-10T01:58:39.149Z,7.01
2023-01-10T01:59:39.158Z,6.99
2023-01-10T02:00:39.132Z,6.99
2023-01-10T02:01:39.209Z,7.01
2023-01-10T02:02:39.156Z,7.02
2023-01-10T02:03:39.076Z,7.02
2023-01-10T02:04:39.216Z,7.05
2023-01-10T02:05:39.058Z,7.07
2023-01-10T02:06:39.024Z,7.08
2023-01-10T02:07:39.063Z,7.08
2023-01-10T02:08:39.020Z,7.08
2023-01-10T02:09:38.987Z,7.07
2023-01-10T02:10:39.012Z,7.05
2023-01-10T02:11:38.972Z,7.05
2023-01-10T02:12:38.971Z,7.04
2023-01-10T02:13:38.950Z,7.04
2023-01-10T02:14:39.015Z,7.05
2023-01-10T02:15:38.996Z,7.12
2023-01-10T02:16:38.972Z,7.15
2023-01-10T02:17:38.916Z,7.16
2023-01-10T02:18:38.873Z,7.16
2023-01-10T02:19:38.937Z,7.15
2023-01-10T02:20:38.900Z,7.13
2023-01-10T02:21:38.821Z,7.13
2023-01-10T02:22:38.829Z,7.09
2023-01-10T02:23:38.797Z,7.12
2023-01-10T02:24:38.818Z,7.12
2023-01-10T02:25:38.820Z,7.13
2023-01-10T02:26:38.790Z,7.12
2023-01-10T02:27:38.759Z,7.09
2023-01-10T02:28:38.766Z,7.09
2023-01-10T02:29:38.852Z,7.08
2023-01-10T02:30:38.748Z,7.07
2023-01-10T02:31:38.899Z,7.07
2023-01-10T02:32:45.945Z,7.07
2023-01-10T02:33:39.682Z,7.04
2023-01-10T02:34:38.682Z,7.02
2023-01-10T02:35:38.651Z,7.01
2023-01-10T02:36:38.638Z,7.01
2023-01-10T02:37:38.632Z,6.99
2023-01-10T02:38:38.640Z,6.98
2023-01-10T02:39:38.621Z,6.97
2023-01-10T02:40:38.600Z,6.98
2023-01-10T02:41:38.600Z,6.97
2023-01-10T02:42:38.653Z,6.97
2023-01-10T02:43:38.570Z,6.97
2023-01-10T02:44:38.540Z,6.97
2023-01-10T02:45:38.644Z,6.95
2023-01-10T02:46:38.606Z,6.90
2023-01-10T02:47:38.519Z,6.89
2023-01-10T02:48:38.500Z,6.86
2023-01-10T02:49:38.502Z,6.86
2023-01-10T02:50:38.483Z,6.84
2023-01-10T02:51:38.576Z,6.84
2023-01-10T02:52:38.441Z,6.84
2023-01-10T02:53:38.419Z,6.81
2023-01-10T02:54:38.412Z,6.81
2023-01-10T02:55:38.403Z,6.80
2023-01-10T02:56:38.386Z,6.79
2023-01-10T02:57:38.378Z,6.76
2023-01-10T02:58:38.368Z,6.76
2023-01-10T02:59:38.370Z,6.76
2023-01-10T03:00:38.352Z,6.76
2023-01-10T03:01:38.537Z,6.73
2023-01-10T03:02:38.316Z,6.72
2023-01-10T03:03:38.381Z,6.72
2023-01-10T03:04:38.305Z,6.72
2023-01-10T03:05:38.296Z,6.71
2023-01-10T03:06:38.278Z,6.72
2023-01-10T03:07:38.241Z,6.72
2023-01-10T03:08:38.244Z,6.72
2023-01-10T03:09:38.210Z,6.72
2023-01-10T03:10:38.312Z,6.73
2023-01-10T03:11:38.212Z,6.72
2023-01-10T03:12:38.203Z,6.72
2023-01-10T03:13:38.159Z,6.71
2023-01-10T03:14:38.203Z,6.72
2023-01-10T03:15:38.149Z,6.71
2023-01-10T03:16:38.141Z,6.71
2023-01-10T03:17:38.133Z,6.68
2023-01-10T03:18:38.148Z,6.66
2023-01-10T03:19:38.071Z,6.68
2023-01-10T03:20:38.081Z,6.66
2023-01-10T03:21:38.058Z,6.66
2023-01-10T03:22:38.054Z,6.66
2023-01-10T03:23:38.061Z,6.66
2023-01-10T03:24:38.033Z,6.66
2023-01-10T03:25:38.012Z,6.66
2023-01-10T03:26:38.022Z,6.66
2023-01-10T03:27:38.013Z,6.69
2023-01-10T03:28:38.000Z,6.68
2023-01-10T03:29:37.965Z,6.66
2023-01-10T03:30:37.970Z,6.66
2023-01-10T03:31:37.973Z,6.68
2023-01-10T03:32:37.943Z,6.68
2023-01-10T03:33:37.910Z,6.66
2023-01-10T03:34:37.901Z,6.66
2023-01-10T03:35:37.883Z,6.66
2023-01-10T03:36:37.880Z,6.66
2023-01-10T03:37:37.861Z,6.69
2023-01-10T03:38:37.854Z,6.68
2023-01-10T03:39:37.830Z,6.68
2023-01-10T03:40:37.821Z,6.68
2023-01-10T03:41:37.820Z,6.69
2023-01-10T03:42:37.833Z,6.71
2023-01-10T03:43:37.805Z,6.72
2023-01-10T03:44:37.814Z,6.71
2023-01-10T03:45:37.824Z,6.69
2023-01-10T03:46:37.925Z,6.69
2023-01-10T03:47:37.734Z,6.69
2023-01-10T03:48:37.739Z,6.69
2023-01-10T03:49:37.713Z,6.69
2023-01-10T03:50:37.686Z,6.69
2023-01-10T03:51:37.666Z,6.68
2023-01-10T03:52:37.680Z,6.69
2023-01-10T03:53:37.651Z,6.69
2023-01-10T03:54:37.683Z,6.68
2023-01-10T03:55:37.690Z,6.68
2023-01-10T03:56:44.642Z,6.65
2023-01-10T03:57:37.661Z,6.63
2023-01-10T03:58:37.591Z,6.65
2023-01-10T03:59:37.594Z,6.65
2023-01-10T04:00:37.577Z,6.63
2023-01-10T04:01:37.692Z,6.63
2023-01-10T04:02:37.527Z,6.63
2023-01-10T04:03:37.550Z,6.62
2023-01-10T04:04:37.521Z,6.62
2023-01-10T04:05:40.112Z,6.63
2023-01-10T04:06:37.488Z,6.63
2023-01-10T04:07:37.485Z,6.63
2023-01-10T04:08:37.498Z,6.63
2023-01-10T04:09:37.439Z,6.63
2023-01-10T04:10:37.468Z,6.63
2023-01-10T04:11:37.444Z,6.66
2023-01-10T04:12:37.412Z,6.69
2023-01-10T04:13:37.390Z,6.72
2023-01-10T04:14:37.399Z,6.73
2023-01-10T04:15:37.413Z,6.73
2023-01-10T04:16:37.409Z,6.73
2023-01-10T04:17:37.355Z,6.76
2023-01-10T04:18:37.340Z,6.76
2023-01-10T04:19:37.344Z,6.73
2023-01-10T04:20:37.315Z,6.77
2023-01-10T04:21:37.309Z,6.77
2023-01-10T04:22:37.322Z,6.76
2023-01-10T04:23:37.268Z,6.72
2023-01-10T04:24:37.268Z,6.71
2023-01-10T04:25:37.238Z,6.69
2023-01-10T04:26:37.256Z,6.68
2023-01-10T04:27:37.208Z,6.66
2023-01-10T04:28:37.208Z,6.63
2023-01-10T04:29:37.185Z,6.65
2023-01-10T04:30:37.190Z,6.66
2023-01-10T04:31:37.199Z,6.65
2023-01-10T04:32:37.172Z,6.66
2023-01-10T04:33:37.145Z,6.63
2023-01-10T04:34:37.144Z,6.63
2023-01-10T04:35:37.108Z,6.63
2023-01-10T04:36:37.105Z,6.63
2023-01-10T04:37:37.104Z,6.63
2023-01-10T04:38:37.094Z,6.63
2023-01-10T04:39:37.084Z,6.63
2023-01-10T04:40:37.062Z,6.65
2023-01-10T04:41:37.038Z,6.63
2023-01-10T04:42:37.029Z,6.65
2023-01-10T04:43:37.000Z,6.65
2023-01-10T04:44:37.002Z,6.66
2023-01-10T04:45:37.121Z,6.68
2023-01-10T04:46:36.983Z,6.69
2023-01-10T04:47:36.964Z,6.72
2023-01-10T04:48:36.972Z,6.71
2023-01-10T04:49:36.941Z,6.72
2023-01-10T04:50:36.926Z,6.71
2023-01-10T04:51:36.941Z,6.72
2023-01-10T04:52:36.900Z,6.72
2023-01-10T04:53:36.888Z,6.71
2023-01-10T04:54:36.885Z,6.69
2023-01-10T04:55:36.860Z,6.69
2023-01-10T04:56:36.858Z,6.69
2023-01-10T04:57:36.820Z,6.71
2023-01-10T04:58:36.824Z,6.71
2023-01-10T04:59:36.791Z,6.73
2023-01-10T05:00:36.789Z,6.72
2023-01-10T05:01:36.789Z,6.72
2023-01-10T05:02:36.885Z,6.73
2023-01-10T05:03:36.748Z,6.77
2023-01-10T05:04:36.795Z,6.79
2023-01-10T05:05:36.736Z,6.79
2023-01-10T05:06:36.739Z,6.79
2023-01-10T05:07:36.708Z,6.79
2023-01-10T05:08:36.772Z,6.79
2023-01-10T05:09:36.670Z,6.79
2023-01-10T05:10:36.668Z,6.80
2023-01-10T05:11:36.669Z,6.77
2023-01-10T05:12:36.639Z,6.79
2023-01-10T05:13:36.633Z,6.79
2023-01-10T05:14:36.618Z,6.81
2023-01-10T05:15:36.593Z,6.83
2023-01-10T05:16:36.676Z,6.83
2023-01-10T05:17:36.580Z,6.83
2023-01-10T05:18:36.559Z,6.81
2023-01-10T05:19:36.559Z,6.83
2023-01-10T05:20:36.536Z,6.81
2023-01-10T05:21:36.530Z,6.81
2023-01-10T05:22:36.529Z,6.79
2023-01-10T05:23:36.503Z,6.80
2023-01-10T05:24:36.482Z,6.77
2023-01-10T05:25:36.481Z,6.76
2023-01-10T05:26:36.461Z,6.79
2023-01-10T05:27:36.456Z,6.77
2023-01-10T05:28:36.430Z,6.79
2023-01-10T05:29:36.432Z,6.76
2023-01-10T05:30:36.438Z,6.77
2023-01-10T05:31:36.440Z,6.77
2023-01-10T05:32:36.381Z,6.80
2023-01-10T05:33:36.369Z,6.80
2023-01-10T05:34:36.349Z,6.83
2023-01-10T05:35:36.367Z,6.86
2023-01-10T05:36:36.341Z,6.86
2023-01-10T05:37:38.015Z,6.86
2023-01-10T05:38:36.305Z,6.87
2023-01-10T05:39:36.297Z,6.86
2023-01-10T05:40:36.284Z,6.86
2023-01-10T05:41:36.279Z,6.86
2023-01-10T05:42:36.259Z,6.86
2023-01-10T05:43:36.261Z,6.86
2023-01-10T05:44:36.213Z,6.87
2023-01-10T05:45:36.259Z,6.90
2023-01-10T05:46:36.195Z,6.90
2023-01-10T05:47:36.205Z,6.91
2023-01-10T05:48:36.185Z,6.91
2023-01-10T05:49:36.180Z,6.94
2023-01-10T05:50:36.148Z,6.94
2023-01-10T05:51:36.149Z,6.94
2023-01-10T05:52:36.128Z,6.94
2023-01-10T05:53:36.125Z,6.91
2023-01-10T05:54:36.111Z,6.91
2023-01-10T05:55:36.116Z,6.90
2023-01-10T05:56:36.076Z,6.91
2023-01-10T05:57:36.083Z,6.94
2023-01-10T05:58:36.039Z,6.94
2023-01-10T05:59:36.052Z,6.95
2023-01-10T06:00:36.035Z,6.97
2023-01-10T06:01:36.041Z,6.94
2023-01-10T06:02:36.126Z,6.97
2023-01-10T06:03:35.987Z,6.97
2023-01-10T06:04:35.975Z,6.95
2023-01-10T06:05:35.957Z,6.95
2023-01-10T06:06:35.943Z,6.97
2023-01-10T06:07:35.969Z,6.99
2023-01-10T06:08:35.925Z,6.98
2023-01-10T06:09:35.924Z,6.99
2023-01-10T06:10:35.897Z,6.98
2023-01-10T06:11:36.602Z,6.98
2023-01-10T06:12:36.084Z,6.98
2023-01-10T06:13:35.868Z,6.99
2023-01-10T06:14:35.851Z,6.99
2023-01-10T06:15:35.874Z,6.99
2023-01-10T06:16:35.825Z,6.99
2023-01-10T06:17:35.873Z,6.99
2023-01-10T06:18:35.805Z,7.01
2023-01-10T06:19:35.780Z,7.02
2023-01-10T06:20:35.767Z,7.04
2023-01-10T06:21:35.761Z,7.05
2023-01-10T06:22:35.748Z,7.02
2023-01-10T06:23:35.749Z,7.01
2023-01-10T06:24:35.708Z,7.02
2023-01-10T06:25:35.709Z,7.02
2023-01-10T06:26:35.682Z,7.04
2023-01-10T06:27:35.679Z,7.02
2023-01-10T06:28:35.651Z,7.02
2023-01-10T06:29:35.672Z,7.02
2023-01-10T06:30:35.651Z,7.02
2023-01-10T06:31:35.679Z,7.02
2023-01-10T06:32:35.614Z,7.02
2023-01-10T06:33:35.616Z,7.02
2023-01-10T06:34:35.617Z,7.04
2023-01-10T06:35:35.577Z,7.02
2023-01-10T06:36:35.565Z,7.02
2023-01-10T06:37:35.557Z,7.02
2023-01-10T06:38:35.565Z,7.01
2023-01-10T06:39:35.574Z,7.02
2023-01-10T06:40:35.501Z,7.02
2023-01-10T06:41:35.501Z,7.02
2023-01-10T06:42:35.468Z,7.02
2023-01-10T06:43:35.481Z,7.02
2023-01-10T06:44:35.464Z,7.02
2023-01-10T06:45:35.480Z,7.01
2023-01-10T06:46:35.427Z,6.99
2023-01-10T06:47:35.426Z,6.99
2023-01-10T06:48:35.406Z,7.01
2023-01-10T06:49:35.402Z,6.99
2023-01-10T06:50:35.394Z,7.01
2023-01-10T06:51:35.395Z,7.01
2023-01-10T06:52:35.360Z,6.99
2023-01-10T06:53:35.361Z,7.01
2023-01-10T06:54:35.357Z,7.01
2023-01-10T06:55:35.319Z,7.01
2023-01-10T06:56:35.339Z,7.01
2023-01-10T06:57:35.289Z,7.01
2023-01-10T06:58:35.269Z,7.01
2023-01-10T06:59:35.271Z,6.99
2023-01-10T07:00:35.245Z,6.98
2023-01-10T07:01:35.382Z,6.98
2023-01-10T07:02:35.258Z,6.98
2023-01-10T07:03:35.246Z,6.97
2023-01-10T07:04:35.212Z,6.95
2023-01-10T07:05:35.202Z,6.94
2023-01-10T07:06:35.182Z,6.95
2023-01-10T07:07:35.183Z,6.94
2023-01-10T07:08:35.169Z,6.94
2023-01-10T07:09:35.150Z,6.95
2023-01-10T07:10:35.138Z,6.97
2023-01-10T07:11:35.123Z,6.98
2023-01-10T07:12:35.089Z,6.97
2023-01-10T07:13:35.111Z,7.01
2023-01-10T07:14:35.078Z,7.02
2023-01-10T07:15:35.072Z,7.04
2023-01-10T07:16:35.042Z,7.07
2023-01-10T07:17:35.041Z,7.05
2023-01-10T07:18:35.017Z,7.05
2023-01-10T07:19:35.036Z,7.04
2023-01-10T07:20:35.001Z,7.07
2023-01-10T07:21:35.024Z,7.05
2023-01-10T07:22:34.977Z,7.05
2023-01-10T07:23:34.971Z,7.05
2023-01-10T07:24:34.958Z,7.07
2023-01-10T07:25:34.952Z,7.08
2023-01-10T07:26:34.915Z,7.09
2023-01-10T07:27:34.907Z,7.09
2023-01-10T07:28:34.893Z,7.09
2023-01-10T07:29:34.908Z,7.12
2023-01-10T07:30:34.885Z,7.12
2023-01-10T07:31:34.975Z,7.13
2023-01-10T07:32:34.866Z,7.13
2023-01-10T07:33:34.841Z,7.15
2023-01-10T07:34:34.876Z,7.15
2023-01-10T07:35:34.821Z,7.13
2023-01-10T07:36:34.789Z,7.15
2023-01-10T07:37:34.810Z,7.13
2023-01-10T07:38:34.748Z,7.13
2023-01-10T07:39:34.759Z,7.15
2023-01-10T07:40:34.765Z,7.16
2023-01-10T07:41:34.757Z,7.17
2023-01-10T07:42:34.728Z,7.17
2023-01-10T07:43:34.713Z,7.19
2023-01-10T07:44:34.691Z,7.17
2023-01-10T07:45:34.717Z,7.17
2023-01-10T07:46:34.725Z,7.19
2023-01-10T07:47:34.761Z,7.17
2023-01-10T07:48:34.646Z,7.16
2023-01-10T07:49:34.631Z,7.15
2023-01-10T07:50:34.619Z,7.13
2023-01-10T07:51:34.611Z,7.13
2023-01-10T07:52:34.582Z,7.09
2023-01-10T07:53:34.593Z,7.13
2023-01-10T07:54:34.559Z,7.12
2023-01-10T07:55:34.574Z,7.13
2023-01-10T07:56:34.534Z,7.15
2023-01-10T07:57:34.525Z,7.12
2023-01-10T07:58:34.501Z,7.13
2023-01-10T07:59:34.537Z,7.15
2023-01-10T08:00:34.496Z,7.13
2023-01-10T08:01:34.544Z,7.16
2023-01-10T08:02:34.567Z,7.16
2023-01-10T08:03:34.610Z,7.15
2023-01-10T08:04:34.452Z,7.15
2023-01-10T08:05:34.431Z,7.16
2023-01-10T08:06:34.411Z,7.17
2023-01-10T08:07:34.422Z,7.16
2023-01-10T08:08:34.394Z,7.19
2023-01-10T08:09:34.388Z,7.19
2023-01-10T08:10:34.359Z,7.20
2023-01-10T08:11:34.362Z,7.20
2023-01-10T08:12:34.333Z,7.19
2023-01-10T08:13:34.330Z,7.20
2023-01-10T08:14:34.337Z,7.22
2023-01-10T08:15:34.352Z,7.20
2023-01-10T08:16:34.296Z,7.20
2023-01-10T08:17:34.270Z,7.22
2023-01-10T08:18:34.262Z,7.23
2023-01-10T08:19:34.288Z,7.23
2023-01-10T08:20:34.240Z,7.23
2023-01-10T08:21:34.237Z,7.24
2023-01-10T08:22:34.216Z,7.24
2023-01-10T08:23:34.209Z,7.24
2023-01-10T08:24:34.176Z,7.24
2023-01-10T08:25:34.161Z,7.24
2023-01-10T08:26:34.155Z,7.23
2023-01-10T08:27:34.180Z,7.24
2023-01-10T08:28:34.139Z,7.26
2023-01-10T08:29:34.121Z,7.27
2023-01-10T08:30:34.102Z,7.26
2023-01-10T08:31:34.162Z,7.26
2023-01-10T08:32:34.068Z,7.27
2023-01-10T08:33:34.069Z,7.29
2023-01-10T08:34:34.044Z,7.29
2023-01-10T08:35:34.041Z,7.29
2023-01-10T08:36:34.019Z,7.29
2023-01-10T08:37:34.019Z,7.27
2023-01-10T08:38:34.000Z,7.29
2023-01-10T08:39:33.984Z,7.29
2023-01-10T08:40:33.971Z,7.31
2023-01-10T08:41:33.968Z,7.31
2023-01-10T08:42:33.953Z,7.31
2023-01-10T08:43:34.002Z,7.32
2023-01-10T08:44:33.923Z,7.31
2023-01-10T08:45:33.916Z,7.34
2023-01-10T08:46:34.014Z,7.34
2023-01-10T08:47:34.852Z,7.34
2023-01-10T08:48:33.871Z,7.34
2023-01-10T08:49:33.897Z,7.35
2023-01-10T08:50:33.855Z,7.35
2023-01-10T08:51:33.839Z,7.38
2023-01-10T08:52:33.824Z,7.40
2023-01-10T08:53:33.827Z,7.38
2023-01-10T08:54:33.782Z,7.40
2023-01-10T08:55:34.590Z,7.37
2023-01-10T08:56:33.812Z,7.37
2023-01-10T08:57:33.813Z,7.37
2023-01-10T08:58:33.811Z,7.37
2023-01-10T08:59:33.783Z,7.35
2023-01-10T09:00:33.724Z,7.38
2023-01-10T09:01:33.860Z,7.38
2023-01-10T09:02:33.772Z,7.41
2023-01-10T09:03:33.700Z,7.38
2023-01-10T09:04:33.677Z,7.37
2023-01-10T09:05:33.691Z,7.40
2023-01-10T09:06:33.682Z,7.40
2023-01-10T09:07:33.747Z,7.40
2023-01-10T09:08:33.635Z,7.40
2023-01-10T09:09:33.615Z,7.41
2023-01-10T09:10:33.611Z,7.38
2023-01-10T09:11:33.600Z,7.37
2023-01-10T09:12:33.606Z,7.37
2023-01-10T09:13:33.589Z,7.38
2023-01-10T09:14:33.563Z,7.40
2023-01-10T09:15:33.554Z,7.42
2023-01-10T09:16:33.534Z,7.47
2023-01-10T09:17:33.524Z,7.52
2023-01-10T09:18:33.524Z,7.53
2023-01-10T09:19:33.505Z,7.53
2023-01-10T09:20:33.493Z,7.56
2023-01-10T09:21:33.490Z,7.53
2023-01-10T09:22:33.457Z,7.53
2023-01-10T09:23:35.414Z,7.50
2023-01-10T09:24:33.428Z,7.50
2023-01-10T09:25:33.410Z,7.49
2023-01-10T09:26:33.399Z,7.47
2023-01-10T09:27:33.403Z,7.47
2023-01-10T09:28:33.403Z,7.45
2023-01-10T09:29:33.391Z,7.45
2023-01-10T09:30:33.360Z,7.47
2023-01-10T09:31:33.390Z,7.49
2023-01-10T09:32:33.332Z,7.52
2023-01-10T09:33:45.626Z,7.52
2023-01-10T09:34:34.323Z,7.55
2023-01-10T09:35:33.294Z,7.60
2023-01-10T09:36:33.306Z,7.63
2023-01-10T09:37:33.236Z,7.63
2023-01-10T09:38:33.233Z,7.71
2023-01-10T09:39:33.222Z,7.74
2023-01-10T09:40:33.222Z,7.75
2023-01-10T09:41:33.209Z,7.77
2023-01-10T09:42:33.201Z,7.77
2023-01-10T09:43:33.171Z,7.79
2023-01-10T09:44:33.197Z,7.79
2023-01-10T09:45:33.134Z,7.81
2023-01-10T09:46:33.158Z,7.79
2023-01-10T09:47:33.114Z,7.81
2023-01-10T09:48:33.125Z,7.84
2023-01-10T09:49:33.113Z,7.84
2023-01-10T09:50:33.093Z,7.84
2023-01-10T09:51:35.264Z,7.84
2023-01-10T09:52:33.052Z,7.85
2023-01-10T09:53:33.032Z,7.84
2023-01-10T09:54:33.032Z,7.78
2023-01-10T09:55:33.113Z,7.78
2023-01-10T09:56:33.012Z,7.78
2023-01-10T09:57:33.005Z,7.81
2023-01-10T09:58:39.990Z,7.78
2023-01-10T09:59:32.955Z,7.79
2023-01-10T10:00:32.969Z,7.77
2023-01-10T10:01:32.935Z,7.75
2023-01-10T10:02:32.926Z,7.75
2023-01-10T10:03:32.960Z,7.74
2023-01-10T10:04:32.986Z,7.71
2023-01-10T10:05:32.889Z,7.75
2023-01-10T10:06:32.876Z,7.81
2023-01-10T10:07:32.844Z,7.81
2023-01-10T10:08:32.845Z,7.81
2023-01-10T10:09:32.817Z,7.84
2023-01-10T10:10:32.847Z,7.96
2023-01-10T10:11:32.820Z,8.00
2023-01-10T10:12:32.783Z,8.07
2023-01-10T10:13:32.783Z,8.10
2023-01-10T10:14:32.821Z,8.12
2023-01-10T10:15:32.750Z,8.08
2023-01-10T10:16:32.819Z,8.02
2023-01-10T10:17:32.728Z,8.00
2023-01-10T10:18:32.847Z,8.00
2023-01-10T10:19:32.719Z,8.00
2023-01-10T10:20:32.716Z,8.03
2023-01-10T10:21:32.667Z,7.99
2023-01-10T10:22:32.674Z,7.99
2023-01-10T10:23:34.222Z,7.94
2023-01-10T10:24:32.640Z,7.89
2023-01-10T10:25:32.615Z,7.87
2023-01-10T10:26:32.621Z,7.84
2023-01-10T10:27:32.609Z,7.89
2023-01-10T10:28:33.358Z,7.90
2023-01-10T10:29:32.565Z,7.96
2023-01-10T10:30:32.571Z,7.96
2023-01-10T10:31:32.585Z,7.99
2023-01-10T10:32:32.574Z,8.02
2023-01-10T10:33:32.525Z,8.03
2023-01-10T10:34:32.507Z,8.04
2023-01-10T10:35:32.485Z,8.08
2023-01-10T10:36:32.487Z,8.10
2023-01-10T10:37:32.470Z,8.07
2023-01-10T10:38:32.505Z,8.10
2023-01-10T10:39:32.447Z,8.08
2023-01-10T10:40:32.448Z,8.08
2023-01-10T10:41:32.411Z,8.08
2023-01-10T10:42:32.419Z,8.02
2023-01-10T10:43:32.401Z,7.97
2023-01-10T10:44:32.397Z,7.94
2023-01-10T10:45:32.465Z,7.96
2023-01-10T10:46:32.370Z,7.99
2023-01-10T10:47:32.354Z,8.04
2023-01-10T10:48:32.336Z,8.08
2023-01-10T10:49:32.308Z,8.08
2023-01-10T10:50:32.325Z,8.07
2023-01-10T10:51:32.309Z,8.03
2023-01-10T10:52:32.325Z,8.04
2023-01-10T10:53:32.288Z,8.02
2023-01-10T10:54:32.260Z,7.99
2023-01-10T10:55:32.279Z,7.99
2023-01-10T10:56:32.230Z,8.03
2023-01-10T10:57:32.209Z,8.02
2023-01-10T10:58:32.231Z,8.03
2023-01-10T10:59:32.182Z,8.12
2023-01-10T11:00:32.179Z,8.12
2023-01-10T11:01:32.341Z,8.15
2023-01-10T11:02:32.161Z,8.20
2023-01-10T11:03:32.135Z,8.22
2023-01-10T11:04:32.146Z,8.15
2023-01-10T11:05:32.136Z,8.15
2023-01-10T11:06:34.099Z,8.22
2023-01-10T11:07:32.095Z,8.26
2023-01-10T11:08:32.087Z,8.30
2023-01-10T11:09:32.050Z,8.29
2023-01-10T11:10:32.052Z,8.22
2023-01-10T11:11:32.032Z,8.26
2023-01-10T11:12:33.600Z,8.32
2023-01-10T11:13:32.018Z,8.28
2023-01-10T11:14:31.999Z,8.32
2023-01-10T11:15:31.980Z,8.28
2023-01-10T11:16:32.055Z,8.26
2023-01-10T11:17:31.947Z,8.30
2023-01-10T11:18:31.944Z,8.30
2023-01-10T11:19:31.917Z,8.29
2023-01-10T11:20:31.946Z,8.22
2023-01-10T11:21:31.904Z,8.22
2023-01-10T11:22:31.887Z,8.25
2023-01-10T11:23:31.867Z,8.28
2023-01-10T11:24:31.865Z,8.25
2023-01-10T11:25:31.837Z,8.26
2023-01-10T11:26:31.849Z,8.25
2023-01-10T11:27:31.877Z,8.28
2023-01-10T11:28:31.883Z,8.32
2023-01-10T11:29:31.801Z,8.36
2023-01-10T11:30:31.801Z,8.39
2023-01-10T11:31:31.803Z,8.39
2023-01-10T11:32:31.769Z,8.40
2023-01-10T11:33:31.740Z,8.48
2023-01-10T11:34:31.747Z,8.55
2023-01-10T11:35:31.731Z,8.65
2023-01-10T11:36:31.707Z,8.65
2023-01-10T11:37:31.700Z,8.71
2023-01-10T11:38:31.734Z,8.86
2023-01-10T11:39:31.668Z,9.04
2023-01-10T11:40:31.679Z,9.13
2023-01-10T11:41:31.670Z,9.15
2023-01-10T11:42:31.632Z,9.12
2023-01-10T11:43:31.610Z,8.99
2023-01-10T11:44:31.598Z,8.93
2023-01-10T11:45:31.673Z,8.84
2023-01-10T11:46:31.589Z,8.81
2023-01-10T11:47:32.381Z,8.86
2023-01-10T11:48:59.740Z,8.96
2023-01-10T11:49:32.544Z,9.02
2023-01-10T11:50:31.540Z,8.99
2023-01-10T11:51:31.532Z,8.94
2023-01-10T11:52:31.526Z,8.96
2023-01-10T11:53:31.485Z,9.05
2023-01-10T11:54:31.496Z,9.18
2023-01-10T11:55:31.461Z,9.15
2023-01-10T11:56:31.460Z,9.09
2023-01-10T11:57:31.487Z,9.01
2023-01-10T11:58:31.445Z,8.96
2023-01-10T11:59:31.429Z,8.96
2023-01-10T12:00:31.397Z,8.86
2023-01-10T12:01:31.421Z,8.78
2023-01-10T12:02:31.397Z,8.76
2023-01-10T12:03:31.358Z,8.68
2023-01-10T12:04:31.355Z,8.60
2023-01-10T12:05:31.387Z,8.55
2023-01-10T12:06:31.341Z,8.47
2023-01-10T12:07:31.310Z,8.47
2023-01-10T12:08:31.332Z,8.48
2023-01-10T12:09:31.283Z,8.45
2023-01-10T12:10:31.289Z,8.44
2023-01-10T12:11:31.258Z,8.37
2023-01-10T12:12:31.251Z,8.37
2023-01-10T12:13:31.269Z,8.40
2023-01-10T12:14:31.233Z,8.45
2023-01-10T12:15:31.210Z,8.48
2023-01-10T12:16:31.218Z,8.54
2023-01-10T12:17:31.183Z,8.60
2023-01-10T12:18:31.195Z,8.66
2023-01-10T12:19:31.161Z,8.60
2023-01-10T12:20:31.157Z,8.58
2023-01-10T12:21:31.132Z,8.60
2023-01-10T12:22:31.136Z,8.60
2023-01-10T12:23:31.172Z,8.58
2023-01-10T12:24:31.140Z,8.62
2023-01-10T12:25:31.102Z,8.62
2023-01-10T12:26:31.072Z,8.66
2023-01-10T12:27:31.056Z,8.66
2023-01-10T12:28:31.072Z,8.63
2023-01-10T12:29:31.030Z,8.65
2023-01-10T12:30:31.198Z,8.65
2023-01-10T12:31:31.013Z,8.66
2023-01-10T12:32:31.005Z,8.63
2023-01-10T12:33:30.966Z,8.65
2023-01-10T12:34:30.974Z,8.58
2023-01-10T12:35:30.942Z,8.54
2023-01-10T12:36:30.971Z,8.51
2023-01-10T12:37:30.950Z,8.51
2023-01-10T12:38:30.952Z,8.58
2023-01-10T12:39:30.906Z,8.63
2023-01-10T12:40:30.905Z,8.66
2023-01-10T12:41:30.873Z,8.66
2023-01-10T12:42:30.860Z,8.75
2023-01-10T12:43:30.861Z,8.78
2023-01-10T12:44:30.845Z,8.71
2023-01-10T12:45:30.817Z,8.65
2023-01-10T12:47:04.158Z,8.68
2023-01-10T12:47:31.908Z,8.69
2023-01-10T12:48:30.804Z,8.72
2023-01-10T12:49:30.780Z,8.78
2023-01-10T12:50:30.772Z,8.83
2023-01-10T12:51:30.779Z,8.81
2023-01-10T12:52:30.739Z,8.73
2023-01-10T12:53:30.714Z,8.72
2023-01-10T12:54:30.711Z,8.73
2023-01-10T12:55:30.727Z,8.75
2023-01-10T12:56:30.681Z,8.78
2023-01-10T12:57:30.665Z,8.83
2023-01-10T12:58:30.676Z,8.86
2023-01-10T12:59:37.333Z,8.83
2023-01-10T13:00:37.613Z,8.73
2023-01-10T13:01:31.740Z,8.72
2023-01-10T13:02:30.767Z,8.71
2023-01-10T13:03:33.239Z,8.73
2023-01-10T13:04:30.618Z,8.75
2023-01-10T13:05:30.582Z,8.76
2023-01-10T13:06:30.572Z,8.78
2023-01-10T13:07:30.541Z,8.84
2023-01-10T13:08:30.544Z,8.84
2023-01-10T13:09:30.516Z,8.84
2023-01-10T13:10:30.509Z,8.83
2023-01-10T13:11:30.496Z,8.87
2023-01-10T13:12:30.483Z,8.83
2023-01-10T13:13:30.472Z,8.78
2023-01-10T13:14:30.514Z,8.75
2023-01-10T13:15:30.494Z,8.71
2023-01-10T13:16:30.471Z,8.66
2023-01-10T13:17:30.409Z,8.69
2023-01-10T13:18:30.408Z,8.66